Robert G. Stone, Jr. — WDD4596 — position and weather

sailwx.info

Track history (hours):
 
Tides and Currents Weather Stations Pressure Air Temp Water Temp Dewpoint Dewpoint Depression Visibility Wind Speed Wind Dir Waves Ship Positions

Robert G. Stone, Jr.

Owner: Kirby Inland Marine, LP, Houston, TX. More information available from US FCC via Universal Licensing System and Coast Guard Vessel Documentation Center.

Last reported at 2015-Jun-30 13:28 UTC. Time now 2015-Jul-06 22:08 UTC.
Position N 30°01' W 089°55'.

Length 27 m; draft 3.1 m.

Type: Towing. MMSI: 367146780.

Date/timePositionNaut miles runAvg speedWind from/ knotsBaromVisibWave heightAir tempDewpointWater temp
2015-Jun-30 13:28N 30°01' W 089°55'3 3.0
2015-Jun-30 12:30N 30°00' W 089°58'2 2.0
2015-Jun-30 11:33N 29°60' W 090°00'0 0.0
2015-Jun-30 10:32N 29°60' W 090°00'0 0.0
2015-Jun-30 09:33N 29°60' W 090°00'0 0.0
2015-Jun-30 08:31N 29°60' W 090°00'0 0.0
2015-Jun-30 07:32N 29°60' W 090°00'0 0.0
2015-Jun-30 06:33N 29°60' W 090°00'0 0.0
2015-Jun-30 05:31N 29°60' W 090°00'0 0.0
2015-Jun-30 04:31N 29°60' W 090°00'0 0.0
2015-Jun-30 03:31N 29°60' W 090°00'0 0.0
2015-Jun-30 02:28N 29°60' W 090°00'0 0.0
2015-Jun-30 01:32N 29°60' W 090°00'0 0.0
2015-Jun-30 00:29N 29°60' W 090°00'0 0.0
2015-Jun-29 23:33N 29°60' W 090°00'0 0.0
2015-Jun-29 22:07N 29°60' W 090°00'1 0.0
2015-Jun-29 00:05N 29°60' W 089°60'0 0.0
2015-Jun-28 23:19N 29°60' W 089°60'0 0.0
2015-Jun-28 22:33N 29°60' W 089°60'0 0.0
2015-Jun-28 21:31N 29°60' W 089°60'0 0.0
2015-Jun-28 17:10N 29°60' W 089°60'0 0.0
2015-Jun-28 10:30N 29°60' W 089°60'1 0.6
2015-Jun-28 09:14N 29°60' W 090°01'2 2.6
2015-Jun-28 08:26N 29°58' W 090°02'0 0.3
2015-Jun-28 07:33N 29°58' W 090°02'0 0.3
2015-Jun-28 06:32N 29°57' W 090°01'0 0.0
2015-Jun-28 05:28N 29°57' W 090°01'3 0.6
2015-Jun-28 01:13N 29°56' W 089°59'0 0.0
2015-Jun-27 23:17N 29°56' W 089°59'0 0.0
2015-Jun-27 22:21N 29°56' W 089°59'0 0.0
2015-Jun-27 21:23N 29°56' W 089°59'0 0.0
2015-Jun-27 20:31N 29°56' W 089°59'0 0.0
2015-Jun-27 18:30N 29°56' W 089°59'0 0.0
2015-Jun-27 17:32N 29°56' W 089°59'0 0.0
2015-Jun-27 16:32N 29°56' W 089°59'0 0.0
2015-Jun-27 15:31N 29°56' W 089°59'0 0.0
2015-Jun-27 14:29N 29°56' W 089°59'0 0.0
2015-Jun-27 13:22N 29°56' W 089°59'0 0.0
2015-Jun-27 12:31N 29°56' W 089°59'0 0.0
2015-Jun-27 11:33N 29°56' W 089°59'0 0.0
2015-Jun-27 10:31N 29°56' W 089°59'0 0.0
2015-Jun-27 09:21N 29°56' W 089°59'35 1.3
2015-Jun-26 05:33N 29°34' W 090°31'6 5.6
2015-Jun-26 04:33N 29°35' W 090°37'3 2.6
2015-Jun-26 03:33N 29°36' W 090°40'3 2.8
2015-Jun-26 02:34N 29°35' W 090°43'4 4.3
2015-Jun-26 01:33N 29°32' W 090°46'7 6.6
2015-Jun-26 00:33N 29°33' W 090°54'  
2015-Jun-21 15:29N 29°17' W 094°59'6 5.4
2015-Jun-21 14:25N 29°19' W 094°52'7 7.8
2015-Jun-21 13:33N 29°23' W 094°46'  
Track history (hours):
 
Tides and Currents Weather Stations Pressure Air Temp Water Temp Dewpoint Dewpoint Depression Visibility Wind Speed Wind Dir Waves Ship Positions

Robert G. Stone, Jr.

Owner: Kirby Inland Marine, LP, Houston, TX. More information available from US FCC via Universal Licensing System and Coast Guard Vessel Documentation Center.

Last reported at 2015-Jun-30 13:28 UTC. Time now 2015-Jul-06 22:08 UTC.
Position N 30°01' W 089°55'.

Length 27 m; draft 3.1 m.

Type: Towing. MMSI: 367146780.

Date/timePositionNaut miles runAvg speedWind from/ knotsBaromVisibWave heightAir tempDewpointWater temp
2015-Jun-30 13:28N 30°01' W 089°55'3 3.0
2015-Jun-30 12:30N 30°00' W 089°58'2 2.0
2015-Jun-30 11:33N 29°60' W 090°00'0 0.0
2015-Jun-30 10:32N 29°60' W 090°00'0 0.0
2015-Jun-30 09:33N 29°60' W 090°00'0 0.0
2015-Jun-30 08:31N 29°60' W 090°00'0 0.0
2015-Jun-30 07:32N 29°60' W 090°00'0 0.0
2015-Jun-30 06:33N 29°60' W 090°00'0 0.0
2015-Jun-30 05:31N 29°60' W 090°00'0 0.0
2015-Jun-30 04:31N 29°60' W 090°00'0 0.0
2015-Jun-30 03:31N 29°60' W 090°00'0 0.0
2015-Jun-30 02:28N 29°60' W 090°00'0 0.0
2015-Jun-30 01:32N 29°60' W 090°00'0 0.0
2015-Jun-30 00:29N 29°60' W 090°00'0 0.0
2015-Jun-29 23:33N 29°60' W 090°00'0 0.0
2015-Jun-29 22:07N 29°60' W 090°00'1 0.0
2015-Jun-29 00:05N 29°60' W 089°60'0 0.0
2015-Jun-28 23:19N 29°60' W 089°60'0 0.0
2015-Jun-28 22:33N 29°60' W 089°60'0 0.0
2015-Jun-28 21:31N 29°60' W 089°60'0 0.0
2015-Jun-28 17:10N 29°60' W 089°60'0 0.0
2015-Jun-28 10:30N 29°60' W 089°60'1 0.6
2015-Jun-28 09:14N 29°60' W 090°01'2 2.6
2015-Jun-28 08:26N 29°58' W 090°02'0 0.3
2015-Jun-28 07:33N 29°58' W 090°02'0 0.3
2015-Jun-28 06:32N 29°57' W 090°01'0 0.0
2015-Jun-28 05:28N 29°57' W 090°01'3 0.6
2015-Jun-28 01:13N 29°56' W 089°59'0 0.0
2015-Jun-27 23:17N 29°56' W 089°59'0 0.0
2015-Jun-27 22:21N 29°56' W 089°59'0 0.0
2015-Jun-27 21:23N 29°56' W 089°59'0 0.0
2015-Jun-27 20:31N 29°56' W 089°59'0 0.0
2015-Jun-27 18:30N 29°56' W 089°59'0 0.0
2015-Jun-27 17:32N 29°56' W 089°59'0 0.0
2015-Jun-27 16:32N 29°56' W 089°59'0 0.0
2015-Jun-27 15:31N 29°56' W 089°59'0 0.0
2015-Jun-27 14:29N 29°56' W 089°59'0 0.0
2015-Jun-27 13:22N 29°56' W 089°59'0 0.0
2015-Jun-27 12:31N 29°56' W 089°59'0 0.0
2015-Jun-27 11:33N 29°56' W 089°59'0 0.0
2015-Jun-27 10:31N 29°56' W 089°59'0 0.0
2015-Jun-27 09:21N 29°56' W 089°59'35 1.3
2015-Jun-26 05:33N 29°34' W 090°31'6 5.6
2015-Jun-26 04:33N 29°35' W 090°37'3 2.6
2015-Jun-26 03:33N 29°36' W 090°40'3 2.8
2015-Jun-26 02:34N 29°35' W 090°43'4 4.3
2015-Jun-26 01:33N 29°32' W 090°46'7 6.6
2015-Jun-26 00:33N 29°33' W 090°54'  
2015-Jun-21 15:29N 29°17' W 094°59'6 5.4
2015-Jun-21 14:25N 29°19' W 094°52'7 7.8
2015-Jun-21 13:33N 29°23' W 094°46'  

Dump ship's entire track history